createdAt,value
2022-12-03T00:02:54.847Z,73.21
2022-12-03T00:06:56.731Z,74.76
2022-12-03T00:10:58.365Z,73.68
2022-12-03T00:14:59.985Z,73.17
2022-12-03T00:19:01.803Z,72.87
2022-12-03T00:23:04.181Z,73.17
2022-12-03T00:27:05.853Z,72.83
2022-12-03T00:31:07.552Z,73.25
2022-12-03T00:35:09.880Z,73.28
2022-12-03T00:39:11.505Z,73.28
2022-12-03T00:43:13.326Z,73.58
2022-12-03T00:47:14.990Z,73.34
2022-12-03T00:51:16.810Z,73.71
2022-12-03T00:55:18.497Z,73.66
2022-12-03T00:59:20.112Z,73.60
2022-12-03T01:03:21.744Z,73.49
2022-12-03T01:07:23.340Z,74.45
2022-12-03T01:11:40.850Z,73.93
2022-12-03T01:15:43.688Z,73.80
2022-12-03T01:19:48.410Z,74.01
2022-12-03T01:23:50.375Z,73.86
2022-12-03T01:27:52.137Z,74.01
2022-12-03T01:32:12.730Z,74.07
2022-12-03T01:36:24.314Z,74.41
2022-12-03T01:40:26.033Z,74.62
2022-12-03T01:44:31.225Z,74.24
2022-12-03T01:48:35.467Z,74.32
2022-12-03T01:52:38.227Z,74.38
2022-12-03T01:56:39.927Z,74.37
2022-12-03T02:00:41.620Z,74.52
2022-12-03T02:04:43.508Z,74.36
2022-12-03T02:08:45.677Z,74.62
2022-12-03T02:12:48.374Z,74.25
2022-12-03T02:16:50.040Z,74.37
2022-12-03T02:21:00.832Z,74.27
2022-12-03T02:25:11.514Z,74.50
2022-12-03T02:29:13.236Z,74.30
2022-12-03T02:33:14.906Z,74.66
2022-12-03T02:37:23.932Z,74.70
2022-12-03T02:41:44.244Z,74.96
2022-12-03T02:45:48.857Z,74.94
2022-12-03T02:49:51.231Z,75.27
2022-12-03T02:53:53.860Z,75.62
2022-12-03T02:57:55.488Z,75.37
2022-12-03T03:01:57.211Z,75.08
2022-12-03T03:06:00.893Z,75.07
2022-12-03T03:10:04.352Z,75.23
2022-12-03T03:14:05.973Z,75.49
2022-12-03T03:18:09.029Z,75.75
2022-12-03T03:22:11.691Z,75.22
2022-12-03T03:26:14.447Z,75.13
2022-12-03T03:30:16.341Z,75.03
2022-12-03T03:34:18.110Z,75.12
2022-12-03T03:38:21.113Z,75.10
2022-12-03T03:42:23.019Z,74.85
2022-12-03T03:46:24.876Z,74.57
2022-12-03T03:50:30.058Z,74.50
2022-12-03T03:54:32.250Z,74.31
2022-12-03T03:58:34.148Z,73.95
2022-12-03T04:02:36.607Z,73.23
2022-12-03T04:06:38.166Z,73.20
2022-12-03T04:10:58.499Z,72.63
2022-12-03T04:15:00.144Z,72.09
2022-12-03T04:19:01.800Z,71.71
2022-12-03T04:23:03.920Z,71.67
2022-12-03T04:27:34.405Z,71.57
2022-12-03T04:31:54.595Z,71.02
2022-12-03T04:35:56.247Z,70.62
2022-12-03T04:39:57.888Z,70.44
2022-12-03T04:44:17.955Z,70.33
2022-12-03T04:48:19.587Z,70.39
2022-12-03T04:52:23.496Z,70.16
2022-12-03T04:56:25.088Z,69.85
2022-12-03T05:00:26.767Z,70.07
2022-12-03T05:04:28.452Z,69.79
2022-12-03T05:08:30.087Z,69.87
2022-12-03T05:12:31.781Z,70.24
2022-12-03T05:16:33.690Z,70.15
2022-12-03T05:20:49.792Z,70.39
2022-12-03T05:24:55.147Z,70.49
2022-12-03T05:28:57.251Z,70.47
2022-12-03T05:32:59.057Z,70.64
2022-12-03T05:37:00.649Z,70.56
2022-12-03T05:41:02.276Z,70.73
2022-12-03T05:45:04.299Z,70.59
2022-12-03T05:49:05.919Z,70.82
2022-12-03T05:53:07.577Z,70.84
2022-12-03T05:57:09.339Z,71.34
2022-12-03T06:01:11.056Z,71.62
2022-12-03T06:05:13.538Z,71.33
2022-12-03T06:09:15.201Z,71.67
2022-12-03T06:13:17.004Z,71.54
2022-12-03T06:17:18.692Z,71.82
2022-12-03T06:21:20.394Z,72.00
2022-12-03T06:25:22.276Z,72.31
2022-12-03T06:29:23.971Z,72.65
2022-12-03T06:33:26.014Z,72.50
2022-12-03T06:37:27.664Z,73.14
2022-12-03T06:41:29.241Z,73.20
2022-12-03T06:45:30.952Z,73.60
2022-12-03T06:49:32.638Z,73.66
2022-12-03T06:53:34.242Z,73.58
2022-12-03T06:57:35.933Z,73.50
2022-12-03T07:01:37.608Z,73.06
2022-12-03T07:05:39.371Z,73.53
2022-12-03T07:09:41.008Z,73.25
2022-12-03T07:13:42.567Z,73.82
2022-12-03T07:17:44.193Z,73.94
2022-12-03T07:21:45.971Z,73.38
2022-12-03T07:25:47.653Z,73.47
2022-12-03T07:29:49.637Z,73.27
2022-12-03T07:33:51.347Z,73.49
2022-12-03T07:37:53.036Z,73.53
2022-12-03T07:41:54.706Z,73.10
2022-12-03T07:45:56.337Z,72.76
2022-12-03T07:49:58.231Z,72.40
2022-12-03T07:53:59.908Z,72.16
2022-12-03T07:58:01.525Z,72.09
2022-12-03T08:02:03.524Z,71.81
2022-12-03T08:06:05.512Z,71.72
2022-12-03T08:10:07.827Z,71.52
2022-12-03T08:14:16.740Z,70.98
2022-12-03T08:18:20.692Z,70.92
2022-12-03T08:22:22.485Z,70.86
2022-12-03T08:26:26.128Z,70.62
2022-12-03T08:30:27.812Z,70.48
2022-12-03T08:34:40.520Z,70.83
2022-12-03T08:39:04.735Z,70.54
2022-12-03T08:43:17.955Z,70.37
2022-12-03T08:47:21.189Z,70.27
2022-12-03T08:51:27.233Z,69.25
2022-12-03T08:55:33.670Z,68.50
2022-12-03T08:59:35.479Z,67.47
2022-12-03T09:03:38.662Z,67.34
2022-12-03T09:07:42.865Z,67.28
2022-12-03T09:11:47.701Z,67.02
2022-12-03T09:15:49.360Z,66.88
2022-12-03T09:19:51.253Z,66.12
2022-12-03T09:23:52.984Z,66.33
2022-12-03T09:27:54.641Z,66.33
2022-12-03T09:31:56.447Z,65.31
2022-12-03T09:35:59.487Z,65.29
2022-12-03T09:40:01.118Z,64.77
2022-12-03T09:44:04.435Z,64.71
2022-12-03T09:48:07.086Z,64.46
2022-12-03T09:52:12.349Z,64.55
2022-12-03T09:56:19.302Z,64.21
2022-12-03T10:00:30.746Z,64.04
2022-12-03T10:04:32.432Z,63.55
2022-12-03T10:08:34.090Z,63.94
2022-12-03T10:12:35.738Z,63.96
2022-12-03T10:16:40.310Z,63.62
2022-12-03T10:20:42.141Z,63.03
2022-12-03T10:24:45.130Z,62.83
2022-12-03T10:28:47.714Z,62.43
2022-12-03T10:32:51.017Z,61.78
2022-12-03T10:37:22.314Z,61.50
2022-12-03T10:41:28.254Z,60.97
2022-12-03T10:45:29.949Z,60.36
2022-12-03T10:49:31.594Z,60.32
2022-12-03T10:53:35.717Z,59.77
2022-12-03T10:57:40.005Z,59.23
2022-12-03T11:01:45.766Z,58.81
2022-12-03T11:05:47.992Z,58.49
2022-12-03T11:09:51.336Z,57.96
2022-12-03T11:13:53.879Z,58.30
2022-12-03T11:17:55.537Z,58.41
2022-12-03T11:22:06.154Z,58.28
2022-12-03T11:26:07.780Z,58.48
2022-12-03T11:30:10.513Z,58.65
2022-12-03T11:34:18.234Z,58.93
2022-12-03T11:38:50.736Z,58.49
2022-12-03T11:42:54.512Z,58.41
2022-12-03T11:46:57.482Z,58.26
2022-12-03T11:50:59.179Z,57.98
2022-12-03T11:55:05.432Z,57.35
2022-12-03T11:59:12.770Z,57.51
2022-12-03T12:03:32.900Z,57.43
2022-12-03T12:07:38.200Z,57.42
2022-12-03T12:11:41.515Z,57.43
2022-12-03T12:15:44.032Z,57.51
2022-12-03T12:19:51.066Z,57.19
2022-12-03T12:23:55.888Z,57.00
2022-12-03T12:27:57.595Z,57.39
2022-12-03T12:32:06.402Z,57.39
2022-12-03T12:36:09.476Z,57.83
2022-12-03T12:40:15.648Z,58.03
2022-12-03T12:44:18.530Z,58.26
2022-12-03T12:48:34.916Z,58.20
2022-12-03T12:52:40.989Z,58.45
2022-12-03T12:56:49.816Z,58.38
2022-12-03T13:00:57.635Z,58.20
2022-12-03T13:05:02.268Z,58.58
2022-12-03T13:09:04.095Z,58.87
2022-12-03T13:13:21.688Z,59.22
2022-12-03T13:17:24.632Z,59.24
2022-12-03T13:21:37.824Z,59.52
2022-12-03T13:30:08.568Z,60.09
2022-12-03T13:34:25.328Z,60.09
2022-12-03T13:38:28.085Z,60.06
2022-12-03T13:42:40.657Z,60.22
2022-12-03T13:46:42.707Z,60.06
2022-12-03T13:50:46.295Z,60.10
2022-12-03T13:54:55.791Z,60.06
2022-12-03T13:59:00.467Z,59.94
2022-12-03T14:03:03.035Z,59.94
2022-12-03T14:07:05.197Z,59.99
2022-12-03T14:11:06.917Z,59.82
2022-12-03T14:15:10.839Z,60.01
2022-12-03T14:19:13.259Z,60.13
2022-12-03T14:23:15.578Z,59.83
2022-12-03T14:27:17.299Z,59.86
2022-12-03T14:31:19.020Z,60.04
2022-12-03T14:35:20.872Z,59.89
2022-12-03T14:39:22.652Z,60.04
2022-12-03T14:43:25.099Z,59.99
2022-12-03T14:47:26.848Z,60.20
2022-12-03T14:51:28.632Z,60.28
2022-12-03T14:55:30.320Z,60.25
2022-12-03T14:59:32.072Z,60.43
2022-12-03T15:03:33.743Z,60.69
2022-12-03T15:07:35.544Z,60.93
2022-12-03T15:11:41.540Z,61.51
2022-12-03T15:15:47.552Z,61.70
2022-12-03T15:19:49.277Z,62.50
2022-12-03T15:23:51.080Z,62.58
2022-12-03T15:27:52.875Z,62.89
2022-12-03T15:31:54.778Z,63.35
2022-12-03T15:35:56.480Z,63.83
2022-12-03T15:39:58.473Z,64.25
2022-12-03T15:44:04.327Z,63.89
2022-12-03T15:48:06.163Z,63.74
2022-12-03T15:52:08.026Z,63.47
2022-12-03T15:56:11.911Z,63.26
2022-12-03T16:00:14.204Z,63.36
2022-12-03T16:04:16.748Z,63.59
2022-12-03T16:08:18.391Z,63.56
2022-12-03T16:12:20.117Z,63.53
2022-12-03T16:16:21.796Z,63.64
2022-12-03T16:20:23.550Z,63.84
2022-12-03T16:24:25.209Z,63.76
2022-12-03T16:28:27.006Z,63.95
2022-12-03T16:32:28.692Z,64.22
2022-12-03T16:36:30.384Z,64.39
2022-12-03T16:40:31.982Z,64.33
2022-12-03T16:44:53.676Z,64.38
2022-12-03T16:48:58.011Z,64.66
2022-12-03T16:52:59.737Z,64.63
2022-12-03T16:57:01.403Z,64.55
2022-12-03T17:01:03.457Z,64.70
2022-12-03T17:05:05.455Z,65.34
2022-12-03T17:09:07.175Z,65.57
2022-12-03T17:13:10.272Z,65.95
2022-12-03T17:17:12.626Z,66.02
2022-12-03T17:21:14.362Z,66.33
2022-12-03T17:25:16.487Z,66.41
2022-12-03T17:29:18.116Z,66.58
2022-12-03T17:33:19.925Z,66.87
2022-12-03T17:37:21.573Z,66.95
2022-12-03T17:41:24.108Z,67.31
2022-12-03T17:45:25.735Z,67.44
2022-12-03T17:49:46.240Z,68.02
2022-12-03T17:53:47.997Z,68.22
2022-12-03T17:57:49.665Z,67.95
2022-12-03T18:01:51.439Z,68.62
2022-12-03T18:05:55.190Z,68.67
2022-12-03T18:09:57.414Z,69.10
2022-12-03T18:14:01.332Z,68.92
2022-12-03T18:18:03.117Z,69.00
2022-12-03T18:22:05.584Z,68.98
2022-12-03T18:26:07.503Z,69.05
2022-12-03T18:30:10.194Z,69.07
2022-12-03T18:34:11.872Z,68.94
2022-12-03T18:38:16.091Z,69.15
2022-12-03T18:42:20.272Z,69.50
2022-12-03T18:46:52.981Z,69.80
2022-12-03T18:50:44.815Z,70.00
2022-12-03T18:54:46.894Z,70.30
2022-12-03T18:58:48.579Z,70.90
2022-12-03T19:03:05.680Z,70.67
2022-12-03T19:07:07.363Z,70.84
2022-12-03T19:11:10.071Z,71.20
2022-12-03T19:15:14.468Z,71.08
2022-12-03T19:19:16.140Z,70.96
2022-12-03T19:23:17.998Z,70.80
2022-12-03T19:27:19.676Z,71.22
2022-12-03T19:31:21.406Z,71.01
2022-12-03T19:35:23.176Z,70.73
2022-12-03T19:39:24.949Z,70.81
2022-12-03T19:43:26.946Z,70.91
2022-12-03T19:47:28.699Z,70.98
2022-12-03T19:51:35.098Z,71.08
2022-12-03T19:55:36.960Z,70.89
2022-12-03T19:59:38.696Z,70.64
2022-12-03T20:03:41.682Z,70.35
2022-12-03T20:07:43.472Z,70.35
2022-12-03T20:11:45.934Z,70.36
2022-12-03T20:15:47.855Z,70.22
2022-12-03T20:19:49.557Z,70.39
2022-12-03T20:23:51.218Z,70.46
2022-12-03T20:27:55.055Z,70.68
2022-12-03T20:31:56.735Z,70.81
2022-12-03T20:35:58.688Z,71.22
2022-12-03T20:40:00.400Z,71.51
2022-12-03T20:44:03.221Z,71.85
2022-12-03T20:48:07.373Z,71.73
2022-12-03T20:52:08.939Z,72.33
2022-12-03T20:56:11.100Z,72.28
2022-12-03T21:00:13.013Z,72.36
2022-12-03T21:04:16.172Z,72.12
2022-12-03T21:08:33.049Z,72.41
2022-12-03T21:12:39.628Z,72.72
2022-12-03T21:21:05.273Z,72.88
2022-12-03T21:25:07.082Z,72.96
2022-12-03T21:29:08.988Z,72.57
2022-12-03T21:33:12.073Z,72.33
2022-12-03T21:37:13.721Z,72.54
2022-12-03T21:41:15.885Z,72.07
2022-12-03T21:45:17.620Z,72.08
2022-12-03T21:49:20.304Z,72.18
2022-12-03T21:53:22.118Z,72.22
2022-12-03T21:57:23.863Z,72.68
2022-12-03T22:01:25.969Z,72.50
2022-12-03T22:05:27.683Z,72.74
2022-12-03T22:09:31.016Z,72.93
2022-12-03T22:13:32.844Z,73.16
2022-12-03T22:17:36.369Z,72.82
2022-12-03T22:21:37.973Z,72.98
2022-12-03T22:25:39.683Z,73.05
2022-12-03T22:29:41.304Z,73.03
2022-12-03T22:33:45.747Z,73.10
2022-12-03T22:37:47.604Z,73.00
2022-12-03T22:41:49.482Z,73.07
2022-12-03T22:45:55.269Z,73.39
2022-12-03T22:49:57.263Z,73.18
2022-12-03T22:54:00.460Z,73.48
2022-12-03T22:58:02.260Z,73.30
2022-12-03T23:02:04.234Z,72.91
2022-12-03T23:06:11.002Z,73.00
2022-12-03T23:10:12.752Z,73.00
2022-12-03T23:14:14.386Z,73.06
2022-12-03T23:18:16.760Z,73.04
2022-12-03T23:22:18.503Z,73.03
2022-12-03T23:26:20.495Z,73.58
2022-12-03T23:30:22.364Z,73.55
2022-12-03T23:34:24.188Z,73.67
2022-12-03T23:38:25.953Z,73.71
2022-12-03T23:42:27.557Z,73.56
2022-12-03T23:46:29.384Z,73.25
2022-12-03T23:50:31.125Z,73.21
2022-12-03T23:54:33.254Z,73.17
2022-12-03T23:58:35.078Z,73.23
